Main page
METAR-TAF:

METAR-TAF

Airports :

Skövde flygplats

Skövde, Sweden

latitude: 58-27N, longitude: 013-58E, elevation: 98 m

Current weather observation

The report was made 25 minutes ago, at 17:20 UTC
Wind 14 kt from the Southwest
Temperature 7°C
Humidity 76%
Pressure 999 hPa
Visibility 10 km or more

METAR: ESGR 051720Z AUTO 22014KT 9999 BKN023/// OVC037/// 07/03 Q0999

Time: 18:45 (17:45 UTC)


TAF: missing

Weather observations and forecasts of more than 4000 airports (METAR and TAF reports).

The available stations are represented by yellow and red dots on the map.

Hover mouse over dot to see the name of the station.

Then click to see weather observations and forecasts.

To change the map : click on the green buttons with a black cross to zoom in, on the green button with a dash to zoom out, or on the green arrows for adjacent maps.


METAR-TAF: